sensor_id;sensor_type;location;lat;lon;timestamp;P1;durP1;ratioP1;P2;durP2;ratioP2
12129;SDS011;6128;59.340;18.040;2022-08-25T00:01:52;5.20;;;1.57;;
12129;SDS011;6128;59.340;18.040;2022-08-25T00:04:21;2.90;;;1.30;;
12129;SDS011;6128;59.340;18.040;2022-08-25T00:06:49;3.87;;;1.30;;
12129;SDS011;6128;59.340;18.040;2022-08-25T00:09:18;2.60;;;1.10;;
12129;SDS011;6128;59.340;18.040;2022-08-25T00:11:47;2.20;;;1.20;;
12129;SDS011;6128;59.340;18.040;2022-08-25T00:14:17;1.87;;;1.20;;
12129;SDS011;6128;59.340;18.040;2022-08-25T00:16:46;3.13;;;1.03;;
12129;SDS011;6128;59.340;18.040;2022-08-25T00:19:14;2.60;;;1.33;;
12129;SDS011;6128;59.340;18.040;2022-08-25T00:21:44;2.33;;;1.00;;
12129;SDS011;6128;59.340;18.040;2022-08-25T00:24:12;2.53;;;1.10;;
12129;SDS011;6128;59.340;18.040;2022-08-25T00:26:41;2.07;;;1.10;;
12129;SDS011;6128;59.340;18.040;2022-08-25T00:29:10;3.27;;;1.10;;
12129;SDS011;6128;59.340;18.040;2022-08-25T00:31:39;2.47;;;1.13;;
12129;SDS011;6128;59.340;18.040;2022-08-25T00:34:07;2.63;;;1.40;;
12129;SDS011;6128;59.340;18.040;2022-08-25T00:36:37;2.23;;;1.07;;
12129;SDS011;6128;59.340;18.040;2022-08-25T00:39:05;1.83;;;1.20;;
12129;SDS011;6128;59.340;18.040;2022-08-25T00:41:34;1.47;;;0.90;;
12129;SDS011;6128;59.340;18.040;2022-08-25T00:44:03;2.90;;;1.00;;
12129;SDS011;6128;59.340;18.040;2022-08-25T00:46:34;1.63;;;0.83;;
12129;SDS011;6128;59.340;18.040;2022-08-25T00:49:05;1.47;;;0.87;;
12129;SDS011;6128;59.340;18.040;2022-08-25T00:51:36;2.73;;;1.10;;
12129;SDS011;6128;59.340;18.040;2022-08-25T00:54:07;3.63;;;1.13;;
12129;SDS011;6128;59.340;18.040;2022-08-25T00:56:43;2.93;;;1.40;;
12129;SDS011;6128;59.340;18.040;2022-08-25T00:59:11;3.13;;;1.40;;
12129;SDS011;6128;59.340;18.040;2022-08-25T01:01:40;3.37;;;1.20;;
12129;SDS011;6128;59.340;18.040;2022-08-25T01:04:09;1.73;;;0.97;;
12129;SDS011;6128;59.340;18.040;2022-08-25T01:06:38;2.07;;;1.20;;
12129;SDS011;6128;59.340;18.040;2022-08-25T01:09:10;3.27;;;1.20;;
12129;SDS011;6128;59.340;18.040;2022-08-25T01:11:39;3.17;;;1.10;;
12129;SDS011;6128;59.340;18.040;2022-08-25T01:14:07;3.53;;;1.10;;
12129;SDS011;6128;59.340;18.040;2022-08-25T01:16:37;1.43;;;1.03;;
12129;SDS011;6128;59.340;18.040;2022-08-25T01:19:05;2.00;;;0.90;;
12129;SDS011;6128;59.340;18.040;2022-08-25T01:21:39;1.20;;;0.80;;
12129;SDS011;6128;59.340;18.040;2022-08-25T01:24:08;2.97;;;1.50;;
12129;SDS011;6128;59.340;18.040;2022-08-25T01:26:37;1.10;;;0.90;;
12129;SDS011;6128;59.340;18.040;2022-08-25T01:29:05;1.47;;;1.10;;
12129;SDS011;6128;59.340;18.040;2022-08-25T01:31:52;1.57;;;1.10;;
12129;SDS011;6128;59.340;18.040;2022-08-25T01:34:23;2.87;;;1.33;;
12129;SDS011;6128;59.340;18.040;2022-08-25T01:36:52;1.80;;;1.03;;
12129;SDS011;6128;59.340;18.040;2022-08-25T01:39:20;4.53;;;1.10;;
12129;SDS011;6128;59.340;18.040;2022-08-25T01:41:52;1.50;;;0.80;;
12129;SDS011;6128;59.340;18.040;2022-08-25T01:44:28;1.47;;;1.07;;
12129;SDS011;6128;59.340;18.040;2022-08-25T01:46:55;1.30;;;1.13;;
12129;SDS011;6128;59.340;18.040;2022-08-25T01:49:23;2.30;;;1.17;;
12129;SDS011;6128;59.340;18.040;2022-08-25T01:51:55;35.17;;;4.40;;
12129;SDS011;6128;59.340;18.040;2022-08-25T01:54:26;44.43;;;6.63;;
12129;SDS011;6128;59.340;18.040;2022-08-25T01:56:53;29.33;;;5.00;;
12129;SDS011;6128;59.340;18.040;2022-08-25T01:59:20;20.53;;;3.83;;
12129;SDS011;6128;59.340;18.040;2022-08-25T02:01:48;19.63;;;2.93;;
12129;SDS011;6128;59.340;18.040;2022-08-25T02:04:15;13.10;;;2.70;;
12129;SDS011;6128;59.340;18.040;2022-08-25T02:06:42;13.00;;;2.37;;
12129;SDS011;6128;59.340;18.040;2022-08-25T02:09:13;13.90;;;3.03;;
12129;SDS011;6128;59.340;18.040;2022-08-25T02:11:43;13.93;;;2.53;;
12129;SDS011;6128;59.340;18.040;2022-08-25T02:14:13;8.13;;;2.03;;
12129;SDS011;6128;59.340;18.040;2022-08-25T02:16:45;4.27;;;1.40;;
12129;SDS011;6128;59.340;18.040;2022-08-25T02:19:14;7.30;;;1.73;;
12129;SDS011;6128;59.340;18.040;2022-08-25T02:21:42;7.30;;;1.90;;
12129;SDS011;6128;59.340;18.040;2022-08-25T02:24:10;3.13;;;1.20;;
12129;SDS011;6128;59.340;18.040;2022-08-25T02:26:39;5.23;;;1.70;;
12129;SDS011;6128;59.340;18.040;2022-08-25T02:29:06;5.73;;;1.37;;
12129;SDS011;6128;59.340;18.040;2022-08-25T02:31:34;2.60;;;1.20;;
12129;SDS011;6128;59.340;18.040;2022-08-25T02:34:03;3.97;;;1.40;;
12129;SDS011;6128;59.340;18.040;2022-08-25T02:36:31;2.13;;;1.37;;
12129;SDS011;6128;59.340;18.040;2022-08-25T02:38:58;1.93;;;1.00;;
12129;SDS011;6128;59.340;18.040;2022-08-25T02:41:27;3.00;;;1.20;;
12129;SDS011;6128;59.340;18.040;2022-08-25T02:43:55;1.07;;;0.97;;
12129;SDS011;6128;59.340;18.040;2022-08-25T02:46:22;2.00;;;0.90;;
12129;SDS011;6128;59.340;18.040;2022-08-25T02:48:50;2.90;;;1.13;;
12129;SDS011;6128;59.340;18.040;2022-08-25T02:51:18;1.30;;;1.10;;
12129;SDS011;6128;59.340;18.040;2022-08-25T02:53:47;1.53;;;1.20;;
12129;SDS011;6128;59.340;18.040;2022-08-25T02:56:16;1.27;;;1.00;;
12129;SDS011;6128;59.340;18.040;2022-08-25T02:58:45;1.63;;;1.00;;
12129;SDS011;6128;59.340;18.040;2022-08-25T03:01:13;1.57;;;0.87;;
12129;SDS011;6128;59.340;18.040;2022-08-25T03:03:42;1.10;;;1.00;;
12129;SDS011;6128;59.340;18.040;2022-08-25T03:06:11;1.47;;;0.93;;
12129;SDS011;6128;59.340;18.040;2022-08-25T03:08:40;2.57;;;1.20;;
12129;SDS011;6128;59.340;18.040;2022-08-25T03:11:08;1.40;;;1.20;;
12129;SDS011;6128;59.340;18.040;2022-08-25T03:13:36;2.33;;;1.10;;
12129;SDS011;6128;59.340;18.040;2022-08-25T03:16:05;2.53;;;1.30;;
12129;SDS011;6128;59.340;18.040;2022-08-25T03:18:34;1.57;;;1.00;;
12129;SDS011;6128;59.340;18.040;2022-08-25T03:21:02;1.30;;;1.10;;
12129;SDS011;6128;59.340;18.040;2022-08-25T03:23:30;3.13;;;1.03;;
12129;SDS011;6128;59.340;18.040;2022-08-25T03:25:57;1.10;;;0.80;;
12129;SDS011;6128;59.340;18.040;2022-08-25T03:28:56;2.70;;;1.00;;
12129;SDS011;6128;59.340;18.040;2022-08-25T03:31:25;1.47;;;0.90;;
12129;SDS011;6128;59.340;18.040;2022-08-25T03:33:53;1.23;;;0.90;;
12129;SDS011;6128;59.340;18.040;2022-08-25T03:36:20;1.47;;;1.20;;
12129;SDS011;6128;59.340;18.040;2022-08-25T03:38:48;2.03;;;0.97;;
12129;SDS011;6128;59.340;18.040;2022-08-25T03:41:16;2.30;;;1.10;;
12129;SDS011;6128;59.340;18.040;2022-08-25T03:43:45;1.93;;;0.83;;
12129;SDS011;6128;59.340;18.040;2022-08-25T03:46:16;4.43;;;1.10;;
12129;SDS011;6128;59.340;18.040;2022-08-25T03:48:46;0.60;;;0.60;;
12129;SDS011;6128;59.340;18.040;2022-08-25T03:51:17;3.03;;;0.90;;
12129;SDS011;6128;59.340;18.040;2022-08-25T03:53:46;2.40;;;0.97;;
12129;SDS011;6128;59.340;18.040;2022-08-25T03:56:13;1.10;;;0.87;;
12129;SDS011;6128;59.340;18.040;2022-08-25T03:58:41;2.93;;;0.80;;
12129;SDS011;6128;59.340;18.040;2022-08-25T04:01:08;0.70;;;0.70;;
12129;SDS011;6128;59.340;18.040;2022-08-25T04:03:36;1.60;;;0.80;;
12129;SDS011;6128;59.340;18.040;2022-08-25T04:06:05;1.17;;;0.80;;
12129;SDS011;6128;59.340;18.040;2022-08-25T04:08:34;2.30;;;0.90;;
12129;SDS011;6128;59.340;18.040;2022-08-25T04:11:04;0.83;;;0.57;;
12129;SDS011;6128;59.340;18.040;2022-08-25T04:13:32;1.40;;;0.70;;
12129;SDS011;6128;59.340;18.040;2022-08-25T04:16:00;5.53;;;1.83;;
12129;SDS011;6128;59.340;18.040;2022-08-25T04:18:27;1.60;;;0.80;;
12129;SDS011;6128;59.340;18.040;2022-08-25T04:21:00;2.10;;;0.90;;
12129;SDS011;6128;59.340;18.040;2022-08-25T04:23:30;3.90;;;1.10;;
12129;SDS011;6128;59.340;18.040;2022-08-25T04:25:57;2.80;;;0.63;;
12129;SDS011;6128;59.340;18.040;2022-08-25T04:28:25;1.17;;;0.63;;
12129;SDS011;6128;59.340;18.040;2022-08-25T04:30:53;1.20;;;0.60;;
12129;SDS011;6128;59.340;18.040;2022-08-25T04:33:20;1.67;;;0.73;;
12129;SDS011;6128;59.340;18.040;2022-08-25T04:35:47;1.53;;;0.60;;
12129;SDS011;6128;59.340;18.040;2022-08-25T04:38:15;1.07;;;0.80;;
12129;SDS011;6128;59.340;18.040;2022-08-25T04:40:46;3.27;;;0.70;;
12129;SDS011;6128;59.340;18.040;2022-08-25T04:43:21;2.60;;;0.70;;
12129;SDS011;6128;59.340;18.040;2022-08-25T04:45:49;1.17;;;0.60;;
12129;SDS011;6128;59.340;18.040;2022-08-25T04:48:16;0.80;;;0.53;;
12129;SDS011;6128;59.340;18.040;2022-08-25T04:50:43;1.40;;;0.60;;
12129;SDS011;6128;59.340;18.040;2022-08-25T04:53:11;2.83;;;0.80;;
12129;SDS011;6128;59.340;18.040;2022-08-25T04:55:39;2.30;;;0.90;;
12129;SDS011;6128;59.340;18.040;2022-08-25T04:58:08;4.10;;;1.03;;
12129;SDS011;6128;59.340;18.040;2022-08-25T05:00:35;2.40;;;0.93;;
12129;SDS011;6128;59.340;18.040;2022-08-25T05:03:03;1.30;;;0.70;;
12129;SDS011;6128;59.340;18.040;2022-08-25T05:05:31;1.70;;;0.70;;
12129;SDS011;6128;59.340;18.040;2022-08-25T05:08:02;1.40;;;0.50;;
12129;SDS011;6128;59.340;18.040;2022-08-25T05:10:30;2.73;;;0.70;;
12129;SDS011;6128;59.340;18.040;2022-08-25T05:12:57;1.77;;;0.73;;
12129;SDS011;6128;59.340;18.040;2022-08-25T05:15:26;1.00;;;0.60;;
12129;SDS011;6128;59.340;18.040;2022-08-25T05:18:11;0.60;;;0.50;;
12129;SDS011;6128;59.340;18.040;2022-08-25T05:20:38;2.30;;;0.70;;
12129;SDS011;6128;59.340;18.040;2022-08-25T05:23:05;0.47;;;0.40;;
12129;SDS011;6128;59.340;18.040;2022-08-25T05:25:32;1.37;;;0.50;;
12129;SDS011;6128;59.340;18.040;2022-08-25T05:28:00;1.37;;;0.63;;
12129;SDS011;6128;59.340;18.040;2022-08-25T05:30:29;2.83;;;0.90;;
12129;SDS011;6128;59.340;18.040;2022-08-25T05:32:56;1.90;;;0.50;;
12129;SDS011;6128;59.340;18.040;2022-08-25T05:35:23;1.00;;;0.63;;
12129;SDS011;6128;59.340;18.040;2022-08-25T05:37:50;0.60;;;0.40;;
12129;SDS011;6128;59.340;18.040;2022-08-25T05:40:21;1.17;;;0.50;;
12129;SDS011;6128;59.340;18.040;2022-08-25T05:42:50;1.43;;;0.50;;
12129;SDS011;6128;59.340;18.040;2022-08-25T05:45:21;0.83;;;0.40;;
12129;SDS011;6128;59.340;18.040;2022-08-25T05:47:49;0.77;;;0.40;;
12129;SDS011;6128;59.340;18.040;2022-08-25T05:50:16;0.70;;;0.70;;
12129;SDS011;6128;59.340;18.040;2022-08-25T05:52:44;2.30;;;0.40;;
12129;SDS011;6128;59.340;18.040;2022-08-25T05:55:11;1.13;;;0.50;;
12129;SDS011;6128;59.340;18.040;2022-08-25T05:57:40;5.73;;;0.67;;
12129;SDS011;6128;59.340;18.040;2022-08-25T06:00:07;1.37;;;0.73;;
12129;SDS011;6128;59.340;18.040;2022-08-25T06:02:36;1.90;;;0.70;;
12129;SDS011;6128;59.340;18.040;2022-08-25T06:05:12;1.00;;;0.40;;
12129;SDS011;6128;59.340;18.040;2022-08-25T06:07:42;2.70;;;0.90;;
12129;SDS011;6128;59.340;18.040;2022-08-25T06:10:11;0.63;;;0.50;;
12129;SDS011;6128;59.340;18.040;2022-08-25T06:12:40;1.70;;;0.60;;
12129;SDS011;6128;59.340;18.040;2022-08-25T06:15:10;1.47;;;0.73;;
12129;SDS011;6128;59.340;18.040;2022-08-25T06:17:38;3.27;;;0.87;;
12129;SDS011;6128;59.340;18.040;2022-08-25T06:20:07;3.67;;;0.70;;
12129;SDS011;6128;59.340;18.040;2022-08-25T06:22:38;1.57;;;0.70;;
12129;SDS011;6128;59.340;18.040;2022-08-25T06:25:06;2.97;;;0.90;;
12129;SDS011;6128;59.340;18.040;2022-08-25T06:27:35;2.73;;;0.80;;
12129;SDS011;6128;59.340;18.040;2022-08-25T06:30:02;1.20;;;0.63;;
12129;SDS011;6128;59.340;18.040;2022-08-25T06:32:30;2.87;;;0.80;;
12129;SDS011;6128;59.340;18.040;2022-08-25T06:34:59;0.83;;;0.60;;
12129;SDS011;6128;59.340;18.040;2022-08-25T06:37:26;2.03;;;0.83;;
12129;SDS011;6128;59.340;18.040;2022-08-25T06:39:55;1.47;;;0.60;;
12129;SDS011;6128;59.340;18.040;2022-08-25T06:42:22;0.70;;;0.50;;
12129;SDS011;6128;59.340;18.040;2022-08-25T06:44:49;3.10;;;0.50;;
12129;SDS011;6128;59.340;18.040;2022-08-25T06:47:17;1.27;;;0.38;;
12129;SDS011;6128;59.340;18.040;2022-08-25T06:49:44;2.92;;;0.63;;
12129;SDS011;6128;59.340;18.040;2022-08-25T06:52:12;3.95;;;0.70;;
12129;SDS011;6128;59.340;18.040;2022-08-25T06:54:39;0.55;;;0.38;;
12129;SDS011;6128;59.340;18.040;2022-08-25T06:57:08;1.52;;;0.82;;
12129;SDS011;6128;59.340;18.040;2022-08-25T06:59:35;1.55;;;0.50;;
12129;SDS011;6128;59.340;18.040;2022-08-25T07:02:04;0.95;;;0.38;;
12129;SDS011;6128;59.340;18.040;2022-08-25T07:04:32;1.77;;;0.40;;
12129;SDS011;6128;59.340;18.040;2022-08-25T07:07:00;1.25;;;0.30;;
12129;SDS011;6128;59.340;18.040;2022-08-25T07:09:28;2.28;;;0.60;;
12129;SDS011;6128;59.340;18.040;2022-08-25T07:11:56;0.50;;;0.20;;
12129;SDS011;6128;59.340;18.040;2022-08-25T07:14:25;1.13;;;0.30;;
12129;SDS011;6128;59.340;18.040;2022-08-25T07:16:52;1.48;;;0.43;;
12129;SDS011;6128;59.340;18.040;2022-08-25T07:19:20;0.93;;;0.38;;
12129;SDS011;6128;59.340;18.040;2022-08-25T07:21:48;1.00;;;0.43;;
12129;SDS011;6128;59.340;18.040;2022-08-25T07:24:18;1.73;;;0.40;;
12129;SDS011;6128;59.340;18.040;2022-08-25T07:26:46;0.93;;;0.50;;
12129;SDS011;6128;59.340;18.040;2022-08-25T07:29:15;0.70;;;0.35;;
12129;SDS011;6128;59.340;18.040;2022-08-25T07:31:47;0.80;;;0.50;;
12129;SDS011;6128;59.340;18.040;2022-08-25T07:34:15;1.90;;;0.55;;
12129;SDS011;6128;59.340;18.040;2022-08-25T07:37:00;0.80;;;0.43;;
12129;SDS011;6128;59.340;18.040;2022-08-25T07:39:29;0.57;;;0.40;;
12129;SDS011;6128;59.340;18.040;2022-08-25T07:41:57;0.73;;;0.50;;
12129;SDS011;6128;59.340;18.040;2022-08-25T07:44:25;0.73;;;0.50;;
12129;SDS011;6128;59.340;18.040;2022-08-25T07:46:54;2.20;;;0.65;;
12129;SDS011;6128;59.340;18.040;2022-08-25T07:49:22;1.20;;;0.40;;
12129;SDS011;6128;59.340;18.040;2022-08-25T07:51:52;1.17;;;0.45;;
12129;SDS011;6128;59.340;18.040;2022-08-25T07:54:20;1.02;;;0.57;;
12129;SDS011;6128;59.340;18.040;2022-08-25T07:56:48;1.00;;;0.30;;
12129;SDS011;6128;59.340;18.040;2022-08-25T07:59:16;1.40;;;0.40;;
12129;SDS011;6128;59.340;18.040;2022-08-25T08:01:43;1.30;;;0.55;;
12129;SDS011;6128;59.340;18.040;2022-08-25T08:04:12;0.75;;;0.30;;
12129;SDS011;6128;59.340;18.040;2022-08-25T08:06:39;0.77;;;0.28;;
12129;SDS011;6128;59.340;18.040;2022-08-25T08:09:06;2.30;;;0.40;;
12129;SDS011;6128;59.340;18.040;2022-08-25T08:11:34;1.88;;;0.22;;
12129;SDS011;6128;59.340;18.040;2022-08-25T08:14:05;1.10;;;0.40;;
12129;SDS011;6128;59.340;18.040;2022-08-25T08:16:33;0.50;;;0.40;;
12129;SDS011;6128;59.340;18.040;2022-08-25T08:19:01;0.52;;;0.35;;
12129;SDS011;6128;59.340;18.040;2022-08-25T08:21:31;0.40;;;0.40;;
12129;SDS011;6128;59.340;18.040;2022-08-25T08:24:00;0.80;;;0.40;;
12129;SDS011;6128;59.340;18.040;2022-08-25T08:26:28;0.60;;;0.38;;
12129;SDS011;6128;59.340;18.040;2022-08-25T08:28:56;0.80;;;0.47;;
12129;SDS011;6128;59.340;18.040;2022-08-25T08:31:23;0.90;;;0.30;;
12129;SDS011;6128;59.340;18.040;2022-08-25T08:33:52;1.80;;;0.30;;
12129;SDS011;6128;59.340;18.040;2022-08-25T08:36:22;1.80;;;0.50;;
12129;SDS011;6128;59.340;18.040;2022-08-25T08:38:52;1.05;;;0.30;;
12129;SDS011;6128;59.340;18.040;2022-08-25T08:44:39;0.40;;;0.30;;
12129;SDS011;6128;59.340;18.040;2022-08-25T08:47:15;1.48;;;0.30;;
12129;SDS011;6128;59.340;18.040;2022-08-25T08:49:54;0.57;;;0.30;;
12129;SDS011;6128;59.340;18.040;2022-08-25T08:52:42;0.60;;;0.40;;
12129;SDS011;6128;59.340;18.040;2022-08-25T08:55:14;0.50;;;0.40;;
12129;SDS011;6128;59.340;18.040;2022-08-25T08:57:49;0.88;;;0.60;;
12129;SDS011;6128;59.340;18.040;2022-08-25T09:00:19;1.75;;;0.40;;
12129;SDS011;6128;59.340;18.040;2022-08-25T09:02:49;1.35;;;1.15;;
12129;SDS011;6128;59.340;18.040;2022-08-25T09:05:19;0.95;;;0.40;;
12129;SDS011;6128;59.340;18.040;2022-08-25T09:07:52;1.00;;;0.55;;
12129;SDS011;6128;59.340;18.040;2022-08-25T09:10:23;0.90;;;0.40;;
12129;SDS011;6128;59.340;18.040;2022-08-25T09:12:57;0.88;;;0.40;;
12129;SDS011;6128;59.340;18.040;2022-08-25T09:15:33;1.88;;;0.40;;
12129;SDS011;6128;59.340;18.040;2022-08-25T09:18:26;0.93;;;0.52;;
12129;SDS011;6128;59.340;18.040;2022-08-25T09:21:02;0.70;;;0.38;;
12129;SDS011;6128;59.340;18.040;2022-08-25T09:23:40;0.65;;;0.30;;
12129;SDS011;6128;59.340;18.040;2022-08-25T09:26:23;0.40;;;0.15;;
12129;SDS011;6128;59.340;18.040;2022-08-25T09:28:59;0.93;;;0.40;;
12129;SDS011;6128;59.340;18.040;2022-08-25T09:31:29;2.25;;;0.30;;
12129;SDS011;6128;59.340;18.040;2022-08-25T09:33:59;1.83;;;0.30;;
12129;SDS011;6128;59.340;18.040;2022-08-25T09:36:27;1.00;;;0.65;;
12129;SDS011;6128;59.340;18.040;2022-08-25T09:38:55;0.73;;;0.70;;
12129;SDS011;6128;59.340;18.040;2022-08-25T09:41:39;0.45;;;0.30;;
12129;SDS011;6128;59.340;18.040;2022-08-25T09:44:15;1.95;;;0.43;;
12129;SDS011;6128;59.340;18.040;2022-08-25T09:46:53;0.65;;;0.20;;
12129;SDS011;6128;59.340;18.040;2022-08-25T09:49:29;0.70;;;0.30;;
12129;SDS011;6128;59.340;18.040;2022-08-25T09:55:00;1.10;;;0.50;;
12129;SDS011;6128;59.340;18.040;2022-08-25T09:57:48;1.13;;;0.52;;
12129;SDS011;6128;59.340;18.040;2022-08-25T10:00:20;1.77;;;0.30;;
12129;SDS011;6128;59.340;18.040;2022-08-25T10:05:46;1.95;;;0.30;;
12129;SDS011;6128;59.340;18.040;2022-08-25T10:08:29;0.57;;;0.30;;
12129;SDS011;6128;59.340;18.040;2022-08-25T10:11:02;0.52;;;0.30;;
12129;SDS011;6128;59.340;18.040;2022-08-25T10:13:42;0.63;;;0.10;;
12129;SDS011;6128;59.340;18.040;2022-08-25T10:16:20;1.30;;;0.30;;
12129;SDS011;6128;59.340;18.040;2022-08-25T10:19:00;1.65;;;0.40;;
12129;SDS011;6128;59.340;18.040;2022-08-25T10:21:29;1.70;;;0.20;;
12129;SDS011;6128;59.340;18.040;2022-08-25T10:23:57;2.78;;;0.50;;
12129;SDS011;6128;59.340;18.040;2022-08-25T10:26:29;1.33;;;0.30;;
12129;SDS011;6128;59.340;18.040;2022-08-25T10:29:09;1.70;;;0.30;;
12129;SDS011;6128;59.340;18.040;2022-08-25T10:31:49;0.68;;;0.20;;
12129;SDS011;6128;59.340;18.040;2022-08-25T10:34:22;1.40;;;0.43;;
12129;SDS011;6128;59.340;18.040;2022-08-25T10:37:02;0.95;;;0.30;;
12129;SDS011;6128;59.340;18.040;2022-08-25T10:39:38;1.42;;;0.40;;
12129;SDS011;6128;59.340;18.040;2022-08-25T10:42:11;1.02;;;0.47;;
12129;SDS011;6128;59.340;18.040;2022-08-25T10:45:05;1.85;;;0.20;;
12129;SDS011;6128;59.340;18.040;2022-08-25T10:48:02;0.43;;;0.20;;
12129;SDS011;6128;59.340;18.040;2022-08-25T10:50:52;0.82;;;0.40;;
12129;SDS011;6128;59.340;18.040;2022-08-25T10:53:26;0.57;;;0.20;;
12129;SDS011;6128;59.340;18.040;2022-08-25T10:56:04;0.43;;;0.30;;
12129;SDS011;6128;59.340;18.040;2022-08-25T10:58:44;0.65;;;0.30;;
12129;SDS011;6128;59.340;18.040;2022-08-25T11:01:48;1.20;;;0.40;;
12129;SDS011;6128;59.340;18.040;2022-08-25T11:04:30;0.88;;;0.30;;
12129;SDS011;6128;59.340;18.040;2022-08-25T11:07:03;0.50;;;0.20;;
12129;SDS011;6128;59.340;18.040;2022-08-25T11:09:36;0.57;;;0.30;;
12129;SDS011;6128;59.340;18.040;2022-08-25T11:12:07;1.30;;;0.30;;
12129;SDS011;6128;59.340;18.040;2022-08-25T11:14:38;2.08;;;0.35;;
12129;SDS011;6128;59.340;18.040;2022-08-25T11:17:14;1.45;;;0.32;;
12129;SDS011;6128;59.340;18.040;2022-08-25T11:19:44;1.30;;;0.50;;
12129;SDS011;6128;59.340;18.040;2022-08-25T11:22:19;1.73;;;0.57;;
12129;SDS011;6128;59.340;18.040;2022-08-25T11:24:54;0.30;;;0.25;;
12129;SDS011;6128;59.340;18.040;2022-08-25T11:27:31;1.42;;;0.60;;
12129;SDS011;6128;59.340;18.040;2022-08-25T11:30:04;0.73;;;0.28;;
12129;SDS011;6128;59.340;18.040;2022-08-25T11:32:35;0.65;;;0.35;;
12129;SDS011;6128;59.340;18.040;2022-08-25T11:35:06;1.50;;;0.47;;
12129;SDS011;6128;59.340;18.040;2022-08-25T11:37:42;1.17;;;0.30;;
12129;SDS011;6128;59.340;18.040;2022-08-25T11:40:18;1.17;;;0.20;;
12129;SDS011;6128;59.340;18.040;2022-08-25T11:43:03;1.25;;;0.30;;
12129;SDS011;6128;59.340;18.040;2022-08-25T11:45:45;0.75;;;0.40;;
12129;SDS011;6128;59.340;18.040;2022-08-25T11:48:23;2.05;;;0.45;;
12129;SDS011;6128;59.340;18.040;2022-08-25T11:51:26;0.47;;;0.20;;
12129;SDS011;6128;59.340;18.040;2022-08-25T11:56:54;0.60;;;0.40;;
12129;SDS011;6128;59.340;18.040;2022-08-25T12:02:36;3.28;;;0.45;;
12129;SDS011;6128;59.340;18.040;2022-08-25T12:05:07;1.15;;;0.20;;
12129;SDS011;6128;59.340;18.040;2022-08-25T12:10:52;0.75;;;0.40;;
12129;SDS011;6128;59.340;18.040;2022-08-25T12:13:25;0.40;;;0.30;;
12129;SDS011;6128;59.340;18.040;2022-08-25T12:16:04;0.43;;;0.30;;
12129;SDS011;6128;59.340;18.040;2022-08-25T12:18:43;0.60;;;0.22;;
12129;SDS011;6128;59.340;18.040;2022-08-25T12:21:13;0.38;;;0.30;;
12129;SDS011;6128;59.340;18.040;2022-08-25T12:24:05;0.73;;;0.50;;
12129;SDS011;6128;59.340;18.040;2022-08-25T12:26:39;1.67;;;0.40;;
12129;SDS011;6128;59.340;18.040;2022-08-25T12:29:19;1.17;;;0.50;;
12129;SDS011;6128;59.340;18.040;2022-08-25T12:32:04;2.22;;;0.30;;
12129;SDS011;6128;59.340;18.040;2022-08-25T12:34:50;1.15;;;0.40;;
12129;SDS011;6128;59.340;18.040;2022-08-25T12:37:38;2.28;;;0.20;;
12129;SDS011;6128;59.340;18.040;2022-08-25T12:40:25;0.60;;;0.50;;
12129;SDS011;6128;59.340;18.040;2022-08-25T12:45:50;0.95;;;0.40;;
12129;SDS011;6128;59.340;18.040;2022-08-25T12:51:19;1.83;;;0.50;;
12129;SDS011;6128;59.340;18.040;2022-08-25T12:53:50;0.73;;;0.40;;
12129;SDS011;6128;59.340;18.040;2022-08-25T12:56:24;1.15;;;0.40;;
12129;SDS011;6128;59.340;18.040;2022-08-25T12:59:09;1.63;;;0.40;;
12129;SDS011;6128;59.340;18.040;2022-08-25T13:01:50;0.50;;;0.25;;
12129;SDS011;6128;59.340;18.040;2022-08-25T13:07:32;0.88;;;0.45;;
12129;SDS011;6128;59.340;18.040;2022-08-25T13:10:24;0.88;;;0.40;;
12129;SDS011;6128;59.340;18.040;2022-08-25T13:12:59;0.43;;;0.43;;
12129;SDS011;6128;59.340;18.040;2022-08-25T13:15:35;1.95;;;0.50;;
12129;SDS011;6128;59.340;18.040;2022-08-25T13:18:12;0.85;;;0.38;;
12129;SDS011;6128;59.340;18.040;2022-08-25T13:20:40;0.55;;;0.30;;
12129;SDS011;6128;59.340;18.040;2022-08-25T13:23:08;1.13;;;0.30;;
12129;SDS011;6128;59.340;18.040;2022-08-25T13:25:38;1.08;;;0.95;;
12129;SDS011;6128;59.340;18.040;2022-08-25T13:28:17;1.42;;;0.77;;
12129;SDS011;6128;59.340;18.040;2022-08-25T13:30:57;1.60;;;0.40;;
12129;SDS011;6128;59.340;18.040;2022-08-25T13:33:26;1.25;;;0.25;;
12129;SDS011;6128;59.340;18.040;2022-08-25T13:35:55;0.32;;;0.30;;
12129;SDS011;6128;59.340;18.040;2022-08-25T13:38:41;2.78;;;0.57;;
12129;SDS011;6128;59.340;18.040;2022-08-25T13:41:15;1.38;;;0.40;;
12129;SDS011;6128;59.340;18.040;2022-08-25T13:43:45;1.45;;;0.50;;
12129;SDS011;6128;59.340;18.040;2022-08-25T13:46:17;0.77;;;0.20;;
12129;SDS011;6128;59.340;18.040;2022-08-25T13:48:45;0.52;;;0.50;;
12129;SDS011;6128;59.340;18.040;2022-08-25T13:51:17;1.38;;;0.40;;
12129;SDS011;6128;59.340;18.040;2022-08-25T13:53:49;0.65;;;0.25;;
12129;SDS011;6128;59.340;18.040;2022-08-25T13:56:29;0.90;;;0.38;;
12129;SDS011;6128;59.340;18.040;2022-08-25T13:58:59;0.75;;;0.20;;
12129;SDS011;6128;59.340;18.040;2022-08-25T14:01:28;0.40;;;0.25;;
12129;SDS011;6128;59.340;18.040;2022-08-25T14:06:48;2.53;;;0.50;;
12129;SDS011;6128;59.340;18.040;2022-08-25T14:09:37;1.75;;;0.35;;
12129;SDS011;6128;59.340;18.040;2022-08-25T14:12:07;0.55;;;0.20;;
12129;SDS011;6128;59.340;18.040;2022-08-25T14:14:34;1.38;;;0.40;;
12129;SDS011;6128;59.340;18.040;2022-08-25T14:17:03;0.43;;;0.30;;
12129;SDS011;6128;59.340;18.040;2022-08-25T14:19:33;0.95;;;0.30;;
12129;SDS011;6128;59.340;18.040;2022-08-25T14:22:01;1.67;;;0.30;;
12129;SDS011;6128;59.340;18.040;2022-08-25T14:24:32;0.75;;;0.43;;
12129;SDS011;6128;59.340;18.040;2022-08-25T14:27:04;1.67;;;0.30;;
12129;SDS011;6128;59.340;18.040;2022-08-25T14:29:32;0.20;;;0.20;;
12129;SDS011;6128;59.340;18.040;2022-08-25T14:31:59;0.40;;;0.40;;
12129;SDS011;6128;59.340;18.040;2022-08-25T14:34:28;1.45;;;0.63;;
12129;SDS011;6128;59.340;18.040;2022-08-25T14:37:00;0.88;;;0.60;;
12129;SDS011;6128;59.340;18.040;2022-08-25T14:39:28;2.05;;;0.63;;
12129;SDS011;6128;59.340;18.040;2022-08-25T14:41:55;1.13;;;0.73;;
12129;SDS011;6128;59.340;18.040;2022-08-25T14:44:23;0.50;;;0.20;;
12129;SDS011;6128;59.340;18.040;2022-08-25T14:46:52;0.90;;;0.40;;
12129;SDS011;6128;59.340;18.040;2022-08-25T14:49:22;0.30;;;0.22;;
12129;SDS011;6128;59.340;18.040;2022-08-25T14:51:54;0.90;;;0.32;;
12129;SDS011;6128;59.340;18.040;2022-08-25T14:54:24;1.17;;;0.40;;
12129;SDS011;6128;59.340;18.040;2022-08-25T14:56:52;0.77;;;0.30;;
12129;SDS011;6128;59.340;18.040;2022-08-25T14:59:20;2.38;;;0.50;;
12129;SDS011;6128;59.340;18.040;2022-08-25T15:01:47;0.47;;;0.40;;
12129;SDS011;6128;59.340;18.040;2022-08-25T15:04:17;0.52;;;0.25;;
12129;SDS011;6128;59.340;18.040;2022-08-25T15:06:47;1.17;;;0.68;;
12129;SDS011;6128;59.340;18.040;2022-08-25T15:09:17;0.65;;;0.50;;
12129;SDS011;6128;59.340;18.040;2022-08-25T15:11:45;0.65;;;0.30;;
12129;SDS011;6128;59.340;18.040;2022-08-25T15:14:15;1.20;;;0.30;;
12129;SDS011;6128;59.340;18.040;2022-08-25T15:16:44;0.68;;;0.30;;
12129;SDS011;6128;59.340;18.040;2022-08-25T15:19:13;1.67;;;0.40;;
12129;SDS011;6128;59.340;18.040;2022-08-25T15:21:44;0.80;;;0.43;;
12129;SDS011;6128;59.340;18.040;2022-08-25T15:24:13;2.25;;;0.52;;
12129;SDS011;6128;59.340;18.040;2022-08-25T15:26:42;0.88;;;0.40;;
12129;SDS011;6128;59.340;18.040;2022-08-25T15:29:11;1.63;;;0.43;;
12129;SDS011;6128;59.340;18.040;2022-08-25T15:31:38;0.88;;;0.38;;
12129;SDS011;6128;59.340;18.040;2022-08-25T15:34:06;1.27;;;0.50;;
12129;SDS011;6128;59.340;18.040;2022-08-25T15:36:33;0.73;;;0.40;;
12129;SDS011;6128;59.340;18.040;2022-08-25T15:39:03;1.33;;;0.47;;
12129;SDS011;6128;59.340;18.040;2022-08-25T15:41:32;0.70;;;0.40;;
12129;SDS011;6128;59.340;18.040;2022-08-25T15:44:02;1.23;;;0.35;;